Terminal Aerodrome Forecast
Issued by NWS Upton, NY

Home | Current Version | Previous Version | Text Only | Print | Product List | Glossary On
Versions: 1 2 3 4 5 6 7 8 9 10 11 12 13 14 15 16 17 18 19 20 21 22 23 24 25 26 27
000
FTUS41 KOKX 300800 AAA
TAFEWR
TAF AMD
KEWR 300837Z 3009/3112 14004KT P6SM SCT030 SCT250
     FM301500 17008KT P6SM SCT040 SCT250
     FM301900 18011G19KT P6SM SCT050 SCT250
     FM310000 19007KT P6SM SCT040 BKN250
     FM310400 21006KT P6SM SCT040 BKN250
     FM311000 21006KT P6SM BKN020=

USA.gov is the U.S. government's official web portal to all federal, state and local government web resources and services.